createdAt,value
2023-02-28T00:01:09.806Z,1.93
2023-02-28T00:03:37.843Z,2.23
2023-02-28T00:06:08.586Z,2.63
2023-02-28T00:08:36.503Z,2.03
2023-02-28T00:11:05.424Z,3.73
2023-02-28T00:13:33.981Z,1.50
2023-02-28T00:16:02.934Z,6.53
2023-02-28T00:18:31.629Z,2.73
2023-02-28T00:20:59.958Z,3.40
2023-02-28T00:23:29.908Z,3.87
2023-02-28T00:25:58.211Z,4.30
2023-02-28T00:28:26.312Z,3.67
2023-02-28T00:30:54.878Z,2.63
2023-02-28T00:33:22.766Z,2.10
2023-02-28T00:35:50.864Z,2.63
2023-02-28T00:38:19.026Z,3.77
2023-02-28T00:40:48.237Z,2.70
2023-02-28T00:43:16.193Z,2.27
2023-02-28T00:45:44.088Z,2.20
2023-02-28T00:48:12.033Z,2.60
2023-02-28T00:50:39.852Z,3.50
2023-02-28T00:53:07.731Z,4.87
2023-02-28T00:55:35.603Z,2.70
2023-02-28T00:58:04.832Z,3.43
2023-02-28T01:00:32.814Z,2.83
2023-02-28T01:03:00.756Z,3.13
2023-02-28T01:05:29.257Z,2.83
2023-02-28T01:07:57.085Z,2.03
2023-02-28T01:10:25.138Z,3.10
2023-02-28T01:12:53.003Z,2.13
2023-02-28T01:15:22.444Z,3.23
2023-02-28T01:17:50.324Z,2.67
2023-02-28T01:20:18.633Z,3.03
2023-02-28T01:22:46.560Z,6.00
2023-02-28T01:25:14.532Z,2.67
2023-02-28T01:27:42.539Z,2.20
2023-02-28T01:30:11.711Z,5.50
2023-02-28T01:32:40.956Z,1.90
2023-02-28T01:35:09.383Z,2.90
2023-02-28T01:37:37.244Z,3.33
2023-02-28T01:40:06.296Z,2.90
2023-02-28T01:42:34.184Z,1.93
2023-02-28T01:45:08.364Z,3.37
2023-02-28T01:47:41.740Z,3.60
2023-02-28T01:50:15.202Z,2.43
2023-02-28T01:52:43.915Z,1.80
2023-02-28T01:55:14.209Z,2.37
2023-02-28T01:57:47.516Z,3.17
2023-02-28T02:00:18.419Z,3.17
2023-02-28T02:02:50.810Z,1.53
2023-02-28T02:05:21.092Z,4.35
2023-02-28T02:07:52.795Z,2.53
2023-02-28T02:10:22.941Z,1.73
2023-02-28T02:13:07.405Z,1.97
2023-02-28T02:15:42.237Z,2.07
2023-02-28T02:18:20.534Z,1.63
2023-02-28T02:21:18.903Z,6.00
2023-02-28T02:24:13.484Z,3.57
2023-02-28T02:27:00.380Z,2.75
2023-02-28T02:29:50.397Z,1.60
2023-02-28T02:33:07.350Z,1.73
2023-02-28T02:35:45.147Z,4.05
2023-02-28T02:38:20.755Z,1.63
2023-02-28T02:40:56.773Z,2.70
2023-02-28T02:43:31.027Z,1.48
2023-02-28T02:46:01.708Z,6.27
2023-02-28T02:48:34.943Z,2.53
2023-02-28T02:51:12.737Z,1.40
2023-02-28T02:53:46.078Z,4.60
2023-02-28T02:56:15.321Z,2.28
2023-02-28T02:58:47.888Z,3.43
2023-02-28T03:01:28.631Z,2.17
2023-02-28T03:03:58.994Z,4.85
2023-02-28T03:06:29.043Z,3.55
2023-02-28T03:08:56.931Z,1.45
2023-02-28T03:11:28.073Z,3.03
2023-02-28T03:14:38.315Z,3.55
2023-02-28T03:17:23.174Z,1.35
2023-02-28T03:20:07.815Z,3.60
2023-02-28T03:22:53.580Z,2.65
2023-02-28T03:25:29.160Z,2.53
2023-02-28T03:28:05.363Z,3.20
2023-02-28T03:30:39.638Z,2.03
2023-02-28T03:33:13.679Z,1.20
2023-02-28T03:35:45.540Z,3.20
2023-02-28T03:38:20.408Z,1.77
2023-02-28T03:40:51.617Z,3.22
2023-02-28T03:43:25.344Z,1.50
2023-02-28T03:45:56.189Z,2.97
2023-02-28T03:48:28.491Z,1.60
2023-02-28T03:50:59.654Z,1.88
2023-02-28T03:53:33.068Z,1.55
2023-02-28T03:56:05.941Z,3.70
2023-02-28T03:58:40.393Z,3.30
2023-02-28T04:01:13.224Z,2.47
2023-02-28T04:03:41.917Z,2.17
2023-02-28T04:06:16.735Z,1.55
2023-02-28T04:08:46.069Z,1.65
2023-02-28T04:11:21.877Z,4.32
2023-02-28T04:13:50.001Z,1.92
2023-02-28T04:16:33.550Z,1.55
2023-02-28T04:19:05.933Z,2.10
2023-02-28T04:21:35.892Z,3.33
2023-02-28T04:24:06.286Z,1.95
2023-02-28T04:26:35.773Z,1.50
2023-02-28T04:29:05.682Z,2.17
2023-02-28T04:31:34.118Z,1.77
2023-02-28T04:34:02.196Z,2.63
2023-02-28T04:36:30.454Z,1.15
2023-02-28T04:38:58.783Z,2.40
2023-02-28T04:41:30.330Z,3.25
2023-02-28T04:44:00.134Z,2.37
2023-02-28T04:46:28.323Z,2.80
2023-02-28T04:48:56.340Z,3.13
2023-02-28T04:51:24.252Z,2.75
2023-02-28T04:53:52.205Z,2.25
2023-02-28T04:56:20.665Z,2.80
2023-02-28T04:58:50.069Z,2.08
2023-02-28T05:01:22.283Z,1.70
2023-02-28T05:03:50.944Z,2.25
2023-02-28T05:06:21.178Z,2.03
2023-02-28T05:08:49.438Z,4.30
2023-02-28T05:11:20.243Z,2.63
2023-02-28T05:13:49.766Z,2.47
2023-02-28T05:16:18.294Z,2.97
2023-02-28T05:18:46.421Z,2.03
2023-02-28T05:21:27.859Z,1.52
2023-02-28T05:23:57.060Z,2.72
2023-02-28T05:26:25.736Z,2.75
2023-02-28T05:28:56.218Z,2.90
2023-02-28T05:31:25.160Z,2.22
2023-02-28T05:33:53.469Z,1.70
2023-02-28T05:36:21.532Z,2.40
2023-02-28T05:38:50.081Z,2.00
2023-02-28T05:41:20.262Z,7.90
2023-02-28T05:43:48.968Z,2.10
2023-02-28T05:46:18.556Z,2.42
2023-02-28T05:48:49.306Z,2.97
2023-02-28T05:51:17.968Z,5.25
2023-02-28T05:53:46.253Z,3.20
2023-02-28T05:56:14.502Z,2.95
2023-02-28T05:58:42.494Z,1.67
2023-02-28T06:01:27.371Z,1.70
2023-02-28T06:03:55.408Z,2.10
2023-02-28T06:06:23.330Z,2.35
2023-02-28T06:08:51.194Z,2.65
2023-02-28T06:11:20.799Z,5.07
2023-02-28T06:13:48.680Z,1.95
2023-02-28T06:16:16.600Z,2.10
2023-02-28T06:18:47.908Z,1.40
2023-02-28T06:21:15.827Z,2.20
2023-02-28T06:23:43.734Z,5.22
2023-02-28T06:26:12.211Z,2.28
2023-02-28T06:28:40.060Z,2.95
2023-02-28T06:31:10.168Z,5.82
2023-02-28T06:33:38.411Z,3.05
2023-02-28T06:36:09.461Z,3.05
2023-02-28T06:38:37.865Z,1.67
2023-02-28T06:41:07.496Z,5.53
2023-02-28T06:43:37.893Z,1.70
2023-02-28T06:46:08.474Z,3.55
2023-02-28T06:48:37.392Z,2.97
2023-02-28T06:51:09.455Z,4.43
2023-02-28T06:53:38.085Z,4.18
2023-02-28T06:56:07.771Z,1.88
2023-02-28T06:58:36.389Z,4.63
2023-02-28T07:01:04.554Z,3.63
2023-02-28T07:03:34.370Z,3.13
2023-02-28T07:06:03.741Z,2.67
2023-02-28T07:08:33.829Z,3.53
2023-02-28T07:11:01.868Z,2.77
2023-02-28T07:13:29.965Z,3.03
2023-02-28T07:15:59.191Z,2.60
2023-02-28T07:18:27.246Z,2.42
2023-02-28T07:20:55.407Z,2.77
2023-02-28T07:23:23.899Z,4.00
2023-02-28T07:25:54.140Z,3.20
2023-02-28T07:28:22.125Z,2.47
2023-02-28T07:30:50.113Z,2.22
2023-02-28T07:33:17.971Z,3.03
2023-02-28T07:35:46.076Z,4.05
2023-02-28T07:38:14.634Z,3.37
2023-02-28T07:40:42.655Z,8.63
2023-02-28T07:43:11.796Z,2.88
2023-02-28T07:45:39.736Z,2.60
2023-02-28T07:48:07.789Z,4.30
2023-02-28T07:50:36.038Z,2.30
2023-02-28T07:53:04.046Z,2.57
2023-02-28T07:55:32.040Z,1.90
2023-02-28T07:58:00.706Z,2.47
2023-02-28T08:00:30.521Z,2.00
2023-02-28T08:02:59.019Z,3.33
2023-02-28T08:05:26.973Z,4.47
2023-02-28T08:07:55.554Z,2.25
2023-02-28T08:10:23.749Z,3.33
2023-02-28T08:12:52.903Z,2.20
2023-02-28T08:15:20.916Z,3.40
2023-02-28T08:17:50.190Z,1.40
2023-02-28T08:20:18.154Z,4.23
2023-02-28T08:22:46.353Z,1.97
2023-02-28T08:25:14.198Z,1.57
2023-02-28T08:27:42.335Z,1.50
2023-02-28T08:30:12.521Z,1.83
2023-02-28T08:32:41.109Z,1.57
2023-02-28T08:35:11.380Z,5.00
2023-02-28T08:37:39.526Z,1.53
2023-02-28T08:40:08.877Z,2.60
2023-02-28T08:42:37.086Z,2.47
2023-02-28T08:45:05.746Z,1.43
2023-02-28T08:47:34.054Z,1.53
2023-02-28T08:50:01.993Z,2.20
2023-02-28T08:52:31.343Z,3.17
2023-02-28T08:54:59.345Z,2.60
2023-02-28T08:57:28.366Z,6.57
2023-02-28T08:59:56.206Z,1.83
2023-02-28T09:02:24.451Z,1.67
2023-02-28T09:04:52.357Z,1.40
2023-02-28T09:07:20.406Z,2.47
2023-02-28T09:09:58.876Z,1.10
2023-02-28T09:12:28.251Z,1.00
2023-02-28T09:14:56.284Z,1.87
2023-02-28T09:17:24.161Z,2.20
2023-02-28T09:19:58.986Z,1.30
2023-02-28T09:22:27.131Z,1.47
2023-02-28T09:24:56.609Z,1.20
2023-02-28T09:27:24.530Z,2.40
2023-02-28T09:29:52.605Z,2.07
2023-02-28T09:32:20.549Z,1.90
2023-02-28T09:34:48.514Z,2.07
2023-02-28T09:37:16.401Z,1.87
2023-02-28T09:39:44.386Z,1.77
2023-02-28T09:42:25.615Z,1.70
2023-02-28T09:44:53.631Z,3.73
2023-02-28T09:47:29.651Z,2.50
2023-02-28T09:50:00.318Z,1.43
2023-02-28T09:52:32.115Z,3.63
2023-02-28T09:55:03.781Z,2.33
2023-02-28T09:57:40.087Z,1.40
2023-02-28T10:00:22.578Z,1.30
2023-02-28T10:03:11.867Z,5.07
2023-02-28T10:05:44.373Z,1.33
2023-02-28T10:08:17.890Z,1.63
2023-02-28T10:10:47.922Z,1.93
2023-02-28T10:13:24.155Z,2.73
2023-02-28T10:15:56.815Z,1.80
2023-02-28T10:18:29.284Z,1.87
2023-02-28T10:20:58.618Z,3.93
2023-02-28T10:23:30.224Z,1.30
2023-02-28T10:26:01.766Z,1.27
2023-02-28T10:28:33.622Z,2.77
2023-02-28T10:31:02.143Z,3.43
2023-02-28T10:33:32.933Z,2.00
2023-02-28T10:36:01.399Z,1.40
2023-02-28T10:38:34.377Z,2.20
2023-02-28T10:41:10.225Z,1.30
2023-02-28T10:43:40.873Z,1.37
2023-02-28T10:46:26.280Z,2.70
2023-02-28T10:49:05.245Z,1.80
2023-02-28T10:51:39.923Z,1.23
2023-02-28T10:54:08.096Z,1.10
2023-02-28T10:56:36.325Z,1.90
2023-02-28T10:59:29.331Z,1.30
2023-02-28T11:01:57.508Z,1.20
2023-02-28T11:04:38.829Z,2.23
2023-02-28T11:07:08.957Z,1.53
2023-02-28T11:09:39.913Z,3.27
2023-02-28T11:12:11.915Z,1.57
2023-02-28T11:14:50.123Z,1.30
2023-02-28T11:17:23.477Z,1.33
2023-02-28T11:19:56.854Z,2.20
2023-02-28T11:22:29.510Z,2.10
2023-02-28T11:25:01.297Z,1.60
2023-02-28T11:27:49.093Z,1.40
2023-02-28T11:30:29.916Z,2.40
2023-02-28T11:32:57.972Z,1.90
2023-02-28T11:35:30.631Z,2.00
2023-02-28T11:37:59.857Z,1.30
2023-02-28T11:40:38.162Z,2.37
2023-02-28T11:43:19.425Z,2.63
2023-02-28T11:46:04.815Z,1.30
2023-02-28T11:48:43.082Z,1.43
2023-02-28T11:51:19.472Z,1.50
2023-02-28T11:54:17.634Z,1.67
2023-02-28T11:56:49.409Z,1.23
2023-02-28T11:59:39.409Z,3.20
2023-02-28T12:02:26.202Z,2.20
2023-02-28T12:05:22.590Z,2.13
2023-02-28T12:08:03.856Z,2.00
2023-02-28T12:10:36.212Z,2.47
2023-02-28T12:13:14.755Z,1.70
2023-02-28T12:15:56.619Z,1.53
2023-02-28T12:18:59.685Z,1.40
2023-02-28T12:21:38.351Z,1.77
2023-02-28T12:24:38.954Z,2.03
2023-02-28T12:27:12.188Z,3.17
2023-02-28T12:29:49.764Z,1.10
2023-02-28T12:32:23.796Z,2.17
2023-02-28T12:34:57.159Z,2.50
2023-02-28T12:37:33.893Z,2.80
2023-02-28T12:40:06.813Z,1.70
2023-02-28T12:42:39.425Z,3.10
2023-02-28T12:45:12.897Z,1.60
2023-02-28T12:47:44.474Z,1.70
2023-02-28T12:50:14.433Z,1.43
2023-02-28T12:52:49.321Z,3.77
2023-02-28T12:55:24.834Z,2.50
2023-02-28T12:58:00.741Z,2.07
2023-02-28T13:00:35.739Z,2.53
2023-02-28T13:03:31.230Z,2.60
2023-02-28T13:06:12.831Z,1.83
2023-02-28T13:08:58.293Z,2.50
2023-02-28T13:11:29.761Z,2.27
2023-02-28T13:14:03.894Z,2.20
2023-02-28T13:17:04.711Z,3.17
2023-02-28T13:19:35.331Z,1.80
2023-02-28T13:22:06.410Z,2.03
2023-02-28T13:24:47.570Z,4.17
2023-02-28T13:27:34.757Z,2.27
2023-02-28T13:30:03.465Z,2.10
2023-02-28T13:32:39.792Z,2.17
2023-02-28T13:35:37.980Z,3.00
2023-02-28T13:38:26.698Z,2.13
2023-02-28T13:40:54.661Z,3.10
2023-02-28T13:43:34.602Z,3.43
2023-02-28T13:46:16.064Z,3.70
2023-02-28T13:48:43.932Z,2.43
2023-02-28T13:51:44.041Z,3.03
2023-02-28T13:54:33.478Z,3.03
2023-02-28T13:57:20.495Z,2.53
2023-02-28T13:59:55.738Z,3.83
2023-02-28T14:02:51.278Z,1.77
2023-02-28T14:05:22.594Z,3.23
2023-02-28T14:07:52.574Z,2.50
2023-02-28T14:10:31.164Z,2.00
2023-02-28T14:13:03.030Z,2.87
2023-02-28T14:15:51.458Z,2.57
2023-02-28T14:18:27.232Z,2.23
2023-02-28T14:21:00.134Z,2.33
2023-02-28T14:23:40.855Z,2.07
2023-02-28T14:26:20.539Z,2.80
2023-02-28T14:29:17.250Z,4.30
2023-02-28T14:31:51.483Z,2.70
2023-02-28T14:34:40.880Z,2.57
2023-02-28T14:37:17.488Z,1.80
2023-02-28T14:39:46.472Z,2.67
2023-02-28T14:42:36.144Z,2.40
2023-02-28T14:45:05.008Z,3.97
2023-02-28T14:47:35.870Z,3.73
2023-02-28T14:50:06.144Z,3.40
2023-02-28T14:52:35.084Z,3.03
2023-02-28T14:55:06.754Z,1.97
2023-02-28T14:57:41.406Z,2.13
2023-02-28T15:00:16.269Z,3.10
2023-02-28T15:02:45.012Z,3.50
2023-02-28T15:05:24.431Z,5.50
2023-02-28T15:08:05.192Z,2.07
2023-02-28T15:10:33.623Z,2.70
2023-02-28T15:13:06.877Z,2.97
2023-02-28T15:16:01.965Z,3.20
2023-02-28T15:18:38.085Z,2.97
2023-02-28T15:21:09.337Z,3.30
2023-02-28T15:23:39.486Z,4.43
2023-02-28T15:26:09.101Z,2.10
2023-02-28T15:28:38.485Z,2.40
2023-02-28T15:31:22.458Z,7.57
2023-02-28T15:33:56.405Z,4.27
2023-02-28T15:36:28.758Z,2.07
2023-02-28T15:39:01.598Z,2.67
2023-02-28T15:41:39.976Z,2.53
2023-02-28T15:44:27.684Z,3.47
2023-02-28T15:47:00.320Z,5.10
2023-02-28T15:49:28.431Z,3.23
2023-02-28T15:51:59.846Z,2.97
2023-02-28T15:54:31.347Z,2.67
2023-02-28T15:57:03.083Z,3.40
2023-02-28T15:59:33.176Z,2.30
2023-02-28T16:02:18.846Z,2.90
2023-02-28T16:05:18.769Z,2.20
2023-02-28T16:07:48.080Z,2.30
2023-02-28T16:10:16.374Z,6.00
2023-02-28T16:12:44.693Z,3.00
2023-02-28T16:15:21.899Z,2.33
2023-02-28T16:17:51.017Z,4.23
2023-02-28T16:20:20.880Z,3.63
2023-02-28T16:22:48.805Z,2.20
2023-02-28T16:25:17.620Z,2.43
2023-02-28T16:27:50.330Z,2.40
2023-02-28T16:30:24.075Z,4.30
2023-02-28T16:32:54.662Z,2.43
2023-02-28T16:35:23.590Z,3.53
2023-02-28T16:37:52.775Z,4.03
2023-02-28T16:40:23.988Z,2.07
2023-02-28T16:42:54.357Z,2.43
2023-02-28T16:45:26.822Z,4.13
2023-02-28T16:47:55.385Z,2.53
2023-02-28T16:50:25.532Z,2.80
2023-02-28T16:52:55.338Z,2.73
2023-02-28T16:55:23.650Z,3.20
2023-02-28T16:57:54.075Z,2.10
2023-02-28T17:00:24.495Z,3.50
2023-02-28T17:02:52.791Z,2.73
2023-02-28T17:05:21.124Z,5.30
2023-02-28T17:07:50.101Z,2.90
2023-02-28T17:10:22.218Z,2.30
2023-02-28T17:12:50.366Z,3.00
2023-02-28T17:15:20.417Z,4.53
2023-02-28T17:17:50.714Z,3.60
2023-02-28T17:20:23.283Z,4.07
2023-02-28T17:22:51.553Z,3.63
2023-02-28T17:25:19.576Z,2.83
2023-02-28T17:27:47.745Z,3.17
2023-02-28T17:30:21.261Z,4.40
2023-02-28T17:32:50.633Z,3.23
2023-02-28T17:35:18.802Z,2.90
2023-02-28T17:37:46.888Z,3.80
2023-02-28T17:40:16.565Z,4.10
2023-02-28T17:42:44.700Z,3.30
2023-02-28T17:45:13.343Z,5.60
2023-02-28T17:47:42.431Z,7.03
2023-02-28T17:50:16.543Z,6.50
2023-02-28T17:52:44.475Z,5.00
2023-02-28T17:55:13.003Z,4.43
2023-02-28T17:57:42.626Z,3.23
2023-02-28T18:00:14.402Z,4.03
2023-02-28T18:02:42.326Z,3.27
2023-02-28T18:05:11.089Z,3.93
2023-02-28T18:07:41.663Z,3.77
2023-02-28T18:10:16.196Z,2.43
2023-02-28T18:12:44.952Z,3.83
2023-02-28T18:15:12.894Z,4.03
2023-02-28T18:17:40.804Z,3.27
2023-02-28T18:20:10.614Z,2.50
2023-02-28T18:22:41.136Z,4.00
2023-02-28T18:25:14.524Z,4.47
2023-02-28T18:27:53.858Z,4.00
2023-02-28T18:30:22.334Z,3.53
2023-02-28T18:32:50.292Z,4.30
2023-02-28T18:35:36.068Z,5.10
2023-02-28T18:38:10.562Z,2.43
2023-02-28T18:40:38.780Z,5.47
2023-02-28T18:43:06.921Z,4.30
2023-02-28T18:45:37.380Z,4.83
2023-02-28T18:48:06.079Z,5.27
2023-02-28T18:50:34.023Z,6.33
2023-02-28T18:53:03.202Z,4.93
2023-02-28T18:55:34.316Z,6.57
2023-02-28T18:58:02.197Z,3.33
2023-02-28T19:00:30.161Z,6.40
2023-02-28T19:02:58.457Z,6.67
2023-02-28T19:05:27.888Z,6.10
2023-02-28T19:07:55.750Z,8.00
2023-02-28T19:10:23.551Z,4.40
2023-02-28T19:12:52.745Z,3.77
2023-02-28T19:15:20.690Z,4.43
2023-02-28T19:17:48.619Z,5.73
2023-02-28T19:20:17.018Z,5.23
2023-02-28T19:22:45.031Z,5.13
2023-02-28T19:25:13.177Z,6.90
2023-02-28T19:27:41.029Z,3.90
2023-02-28T19:30:12.612Z,5.50
2023-02-28T19:32:40.500Z,5.27
2023-02-28T19:35:09.203Z,5.17
2023-02-28T19:37:39.251Z,4.53
2023-02-28T19:40:08.749Z,4.57
2023-02-28T19:42:37.002Z,4.90
2023-02-28T19:45:10.045Z,5.03
2023-02-28T19:47:41.081Z,4.23
2023-02-28T19:50:10.243Z,6.50
2023-02-28T19:52:38.142Z,4.23
2023-02-28T19:55:06.801Z,5.03
2023-02-28T19:57:34.775Z,5.33
2023-02-28T20:00:02.784Z,7.13
2023-02-28T20:02:30.727Z,8.37
2023-02-28T20:05:01.383Z,9.07
2023-02-28T20:07:29.427Z,3.70
2023-02-28T20:09:57.262Z,5.07
2023-02-28T20:12:26.188Z,4.50
2023-02-28T20:14:56.061Z,5.13
2023-02-28T20:17:24.205Z,5.07
2023-02-28T20:19:52.162Z,5.97
2023-02-28T20:22:21.428Z,4.97
2023-02-28T20:24:49.651Z,4.93
2023-02-28T20:27:17.549Z,4.20
2023-02-28T20:29:45.376Z,7.30
2023-02-28T20:32:13.795Z,6.83
2023-02-28T20:34:42.010Z,9.97
2023-02-28T20:37:09.862Z,5.20
2023-02-28T20:39:39.050Z,5.10
2023-02-28T20:42:07.249Z,5.63
2023-02-28T20:44:35.208Z,11.37
2023-02-28T20:47:03.678Z,6.80
2023-02-28T20:49:31.589Z,7.33
2023-02-28T20:51:59.508Z,7.80
2023-02-28T20:54:28.687Z,6.20
2023-02-28T20:56:58.170Z,7.17
2023-02-28T20:59:26.302Z,8.10
2023-02-28T21:01:56.178Z,8.87
2023-02-28T21:04:24.443Z,7.57
2023-02-28T21:06:53.393Z,7.67
2023-02-28T21:09:21.298Z,5.60
2023-02-28T21:11:49.697Z,5.73
2023-02-28T21:14:19.348Z,4.90
2023-02-28T21:16:47.529Z,6.53
2023-02-28T21:19:15.785Z,7.13
2023-02-28T21:21:45.353Z,6.27
2023-02-28T21:24:14.397Z,5.53
2023-02-28T21:26:44.445Z,6.77
2023-02-28T21:29:13.450Z,7.10
2023-02-28T21:31:42.938Z,8.27
2023-02-28T21:34:12.764Z,9.23
2023-02-28T21:36:45.470Z,5.37
2023-02-28T21:39:16.305Z,6.23
2023-02-28T21:41:44.472Z,4.80
2023-02-28T21:44:18.432Z,6.33
2023-02-28T21:46:49.286Z,4.37
2023-02-28T21:49:17.983Z,6.33
2023-02-28T21:51:46.241Z,6.57
2023-02-28T21:54:15.029Z,4.53
2023-02-28T21:56:44.478Z,5.43
2023-02-28T21:59:12.409Z,5.53
2023-02-28T22:01:43.391Z,5.97
2023-02-28T22:04:21.337Z,7.97
2023-02-28T22:06:51.756Z,5.90
2023-02-28T22:09:19.803Z,9.50
2023-02-28T22:11:48.295Z,5.30
2023-02-28T22:14:16.480Z,6.37
2023-02-28T22:16:54.481Z,5.37
2023-02-28T22:19:24.308Z,4.83
2023-02-28T22:21:53.813Z,6.17
2023-02-28T22:24:24.253Z,5.67
2023-02-28T22:26:52.997Z,5.07
2023-02-28T22:29:21.015Z,4.23
2023-02-28T22:31:49.104Z,7.93
2023-02-28T22:34:17.191Z,6.40
2023-02-28T22:36:46.368Z,6.83
2023-02-28T22:39:14.319Z,7.37
2023-02-28T22:41:42.129Z,9.07
2023-02-28T22:44:10.137Z,6.70
2023-02-28T22:46:38.331Z,6.10
2023-02-28T22:49:07.033Z,5.67
2023-02-28T22:51:35.821Z,5.50
2023-02-28T22:54:05.654Z,11.07
2023-02-28T22:56:33.958Z,5.43
2023-02-28T22:59:03.092Z,6.47
2023-02-28T23:01:33.311Z,8.13
2023-02-28T23:04:02.149Z,6.80
2023-02-28T23:06:32.252Z,11.13
2023-02-28T23:09:02.929Z,6.07
2023-02-28T23:11:35.206Z,8.03
2023-02-28T23:14:04.210Z,6.57
2023-02-28T23:16:35.928Z,6.90
2023-02-28T23:19:06.281Z,7.17
2023-02-28T23:21:34.726Z,8.20
2023-02-28T23:24:03.667Z,8.77
2023-02-28T23:26:33.699Z,6.97
2023-02-28T23:29:01.573Z,8.13
2023-02-28T23:31:29.450Z,6.20
2023-02-28T23:33:58.176Z,10.17
2023-02-28T23:36:26.071Z,5.87
2023-02-28T23:38:54.530Z,6.27
2023-02-28T23:41:23.878Z,6.67
2023-02-28T23:43:54.699Z,7.17
2023-02-28T23:46:23.261Z,6.63
2023-02-28T23:48:51.286Z,6.10
2023-02-28T23:51:21.405Z,8.47
2023-02-28T23:53:51.787Z,5.23
2023-02-28T23:56:22.180Z,4.57
2023-02-28T23:58:50.401Z,6.57
